タヒチ島 の空港の天気 - METARとTAF

タヒチ・ファアア国際空港 ( NTAA / PPT ) - フランス領ポリネシア タヒチ島
飛行場実況気象(Metar)
観測時間10/21 06:30 TAHT (10/21 16:30 UTC)
風向・風速不定 1m/s
視程10km以上
天気現象
少しの雲 雲底高度 700m
全天の8割程度の雲 雲底高度 9140m
気温25℃
湿度78%
気圧1013hPa
METARNTAA 211630Z VRB02KT 9999 FEW023 BKN300 25/21 Q1013 NOSIG
過去の天気等 Google飛行場航空写真 Wunderground天気予報

過去48時間のMETAR

飛行場予報(TAF)
発表時間: 10/21 01:00 TAHT (10/21 11:00 UTC)
予報対象時間: 21日2時 TAHT ~ 22日8時 TAHT
風向・風速不定 3m/s
視程10km以上
少しの雲 雲底高度 700m
21日10時 TAHT ~ 21日13時 TAHT に 確率 30% で一時的に
風向・風速北東 6m/s
21日13時 TAHT ~ 21日15時 TAHT に 確率 30% で一時的に
天気現象しゅう雨
少しの雲 雲底高度 610m
全天の8割程度の雲 雲底高度 1520m
TAF NTAA 211100Z 2112/2218 VRB05KT 9999 FEW023
PROB30 TEMPO 2120/2123 04012KT
PROB30 TEMPO 2123/2201 SHRA FEW020 BKN050